Time;durP1;ratioP1;P1;durP2;ratioP2;P2;SDS_P1;SDS_P2;PMS_P1;PMS_P2;Temp;Humidity;BMP_temperature;BMP_pressure;BME280_temperature;BME280_humidity;BME280_pressure;Samples;Min_cycle;Max_cycle;Signal;HPM_P1;HPM_P2
2024/04/07 00:01:44;;;;;;;0.63;0.63;;;;;;;12.98;80.78;99893.69;5114522;28;20048;-66
2024/04/07 00:04:11;;;;;;;2.25;1.45;;;;;;;13.11;80.87;99903.88;5114210;28;20047;-66
2024/04/07 00:06:39;;;;;;;1.45;1.30;;;;;;;13.08;80.81;99903.03;5114170;28;20036;-66
2024/04/07 00:09:06;;;;;;;1.38;1.27;;;;;;;13.07;81.08;99903.91;5114016;28;20043;-66
2024/04/07 00:11:34;;;;;;;1.20;1.10;;;;;;;13.08;81.00;99896.19;5113299;28;20043;-67
2024/04/07 00:14:01;;;;;;;1.20;0.80;;;;;;;13.07;81.04;99896.22;5114214;28;20413;-66
2024/04/07 00:16:28;;;;;;;0.65;0.65;;;;;;;13.05;81.30;99885.91;5096939;28;20040;-66
2024/04/07 00:18:56;;;;;;;0.57;0.57;;;;;;;13.09;81.34;99891.94;5113972;28;20043;-66
2024/04/07 00:21:27;;;;;;;1.45;1.23;;;;;;;13.09;81.18;99877.41;5080305;28;20047;-66
2024/04/07 00:23:54;;;;;;;1.40;1.30;;;;;;;13.05;81.13;99885.91;5113756;28;20042;-66
2024/04/07 00:26:21;;;;;;;1.02;0.95;;;;;;;12.99;80.85;99885.97;5113796;28;20032;-66
2024/04/07 00:28:48;;;;;;;1.48;1.08;;;;;;;12.93;81.08;99886.03;5114081;28;20040;-66
2024/04/07 00:31:16;;;;;;;0.80;0.80;;;;;;;12.89;81.21;99899.72;5113898;28;20059;-67
2024/04/07 00:33:42;;;;;;;1.30;1.20;;;;;;;12.72;81.58;99861.41;5096970;28;20067;-66
2024/04/07 00:36:11;;;;;;;4.57;2.15;;;;;;;12.93;81.87;99895.44;5096983;28;20497;-66
2024/04/07 00:38:38;;;;;;;1.58;0.77;;;;;;;12.94;81.49;99895.41;5113533;28;20036;-66
2024/04/07 00:41:06;;;;;;;0.40;0.40;;;;;;;12.94;81.77;99890.28;5114080;28;20044;-66
2024/04/07 00:43:32;;;;;;;0.82;0.82;;;;;;;12.95;81.85;99889.44;5096430;28;20434;-66
2024/04/07 00:46:00;;;;;;;1.95;1.30;;;;;;;12.96;81.62;99886.00;5096050;28;20048;-66
2024/04/07 00:48:27;;;;;;;0.70;0.70;;;;;;;12.92;81.30;99886.88;5113615;28;20039;-66
2024/04/07 00:50:56;;;;;;;0.85;0.85;;;;;;;12.91;81.48;99889.47;5113280;28;20147;-66
2024/04/07 00:53:24;;;;;;;0.50;0.50;;;;;;;12.84;81.26;99875.84;5113262;28;20039;-66
2024/04/07 00:55:51;;;;;;;0.60;0.60;;;;;;;12.88;81.55;99887.78;5113229;28;20524;-66
2024/04/07 00:58:18;;;;;;;0.55;0.55;;;;;;;12.89;81.40;99886.91;5113125;28;20070;-66
2024/04/07 01:00:47;;;;;;;1.02;0.90;;;;;;;12.90;81.45;99880.06;5113406;28;20036;-66
2024/04/07 01:03:15;;;;;;;5.35;1.73;;;;;;;12.86;81.12;99874.09;5113259;28;20119;-66
2024/04/07 01:05:43;;;;;;;0.50;0.50;;;;;;;12.82;81.04;99877.56;5112978;28;20043;-66
2024/04/07 01:08:12;;;;;;;0.75;0.75;;;;;;;12.75;80.94;99865.66;5095975;28;20498;-66
2024/04/07 01:10:43;;;;;;;0.75;0.75;;;;;;;12.76;81.31;99883.56;5112948;28;20051;-66
2024/04/07 01:13:10;;;;;;;0.50;0.50;;;;;;;12.83;81.09;99878.41;5096402;28;20486;-66
2024/04/07 01:15:38;;;;;;;0.50;0.50;;;;;;;12.82;81.32;99882.69;5095954;28;20047;-66
2024/04/07 01:18:05;;;;;;;0.65;0.65;;;;;;;12.81;81.79;99881.00;5079028;28;20414;-66
2024/04/07 01:20:34;;;;;;;0.60;0.60;;;;;;;12.84;81.23;99880.13;5095704;28;20451;-66
2024/04/07 01:23:01;;;;;;;1.45;1.15;;;;;;;12.84;81.02;99891.19;5095113;28;20047;-66
2024/04/07 01:25:31;;;;;;;0.47;0.47;;;;;;;12.84;81.37;99886.09;5113369;28;20039;-67
2024/04/07 01:27:59;;;;;;;0.70;0.70;;;;;;;12.84;81.24;99886.09;5112685;28;20489;-67
2024/04/07 01:30:28;;;;;;;0.90;0.90;;;;;;;12.78;81.29;99881.88;5113017;28;20393;-66
2024/04/07 01:32:55;;;;;;;0.50;0.50;;;;;;;12.75;81.52;99881.03;5112816;28;20393;-66
2024/04/07 01:35:23;;;;;;;0.82;0.82;;;;;;;12.77;81.36;99889.53;5112702;28;20036;-66
2024/04/07 01:37:50;;;;;;;0.70;0.70;;;;;;;12.76;81.33;99882.75;5113001;28;20050;-66
2024/04/07 01:40:18;;;;;;;0.68;0.65;;;;;;;12.76;81.67;99885.28;5095876;28;20044;-66
2024/04/07 01:42:46;;;;;;;0.47;0.47;;;;;;;12.74;81.68;99884.47;5113001;28;20059;-66
2024/04/07 01:45:15;;;;;;;0.40;0.40;;;;;;;12.75;81.46;99892.13;5110079;28;20063;-66
2024/04/07 01:47:41;;;;;;;0.82;0.82;;;;;;;12.75;81.60;99893.81;5092300;28;20445;-67
2024/04/07 01:50:09;;;;;;;0.70;0.70;;;;;;;12.73;81.70;99898.97;5092364;28;20040;-66
2024/04/07 01:52:36;;;;;;;0.82;0.82;;;;;;;12.68;81.63;99894.72;5092206;28;20495;-66
2024/04/07 01:55:04;;;;;;;0.50;0.50;;;;;;;12.61;81.55;99893.91;5092168;28;20047;-66
2024/04/07 01:57:31;;;;;;;0.60;0.52;;;;;;;12.53;81.80;99899.94;5092154;28;20048;-66
2024/04/07 02:00:00;;;;;;;1.17;0.93;;;;;;;12.44;81.90;99900.84;5092210;28;20093;-66
2024/04/07 02:02:27;;;;;;;0.73;0.73;;;;;;;12.38;81.62;99905.13;5092250;28;20051;-66
2024/04/07 02:04:55;;;;;;;0.43;0.43;;;;;;;12.32;81.42;99911.13;5092603;28;20055;-66
2024/04/07 02:07:22;;;;;;;0.95;0.63;;;;;;;12.29;81.96;99910.28;5091943;28;20032;-66
2024/04/07 02:09:50;;;;;;;1.67;1.10;;;;;;;12.26;81.97;99907.75;5092172;28;20044;-66
2024/04/07 02:12:17;;;;;;;0.40;0.40;;;;;;;12.26;82.39;99910.31;5092374;28;20055;-66
2024/04/07 02:14:44;;;;;;;0.90;0.85;;;;;;;12.15;82.20;99896.69;5092596;28;20490;-66
2024/04/07 02:17:13;;;;;;;0.77;0.77;;;;;;;12.26;82.42;99920.53;5091959;28;20398;-66
2024/04/07 02:19:41;;;;;;;0.40;0.40;;;;;;;12.17;82.44;99918.00;5091707;28;20093;-66
2024/04/07 02:22:08;;;;;;;0.70;0.70;;;;;;;12.12;82.67;99917.19;5092190;28;20036;-66
2024/04/07 02:24:36;;;;;;;0.50;0.50;;;;;;;12.07;82.47;99910.34;5092494;28;20040;-66
2024/04/07 02:27:03;;;;;;;0.60;0.60;;;;;;;12.05;82.53;99906.94;5092006;28;20036;-66
2024/04/07 02:29:32;;;;;;;0.90;0.52;;;;;;;12.02;82.75;99906.97;5091858;28;20390;-66
2024/04/07 02:32:00;;;;;;;0.85;0.85;;;;;;;11.88;82.89;99889.94;5075017;28;20452;-66
2024/04/07 02:34:29;;;;;;;1.17;1.08;;;;;;;11.88;82.97;99903.59;5092181;28;20043;-66
2024/04/07 02:36:55;;;;;;;1.58;1.02;;;;;;;11.88;83.16;99908.69;5095759;28;20486;-66
2024/04/07 02:39:23;;;;;;;0.93;0.88;;;;;;;11.89;83.08;99905.31;5078266;28;20105;-66
2024/04/07 02:41:50;;;;;;;0.60;0.60;;;;;;;11.85;83.13;99913.81;5078851;28;20036;-66
2024/04/07 02:44:18;;;;;;;0.80;0.80;;;;;;;11.80;83.21;99920.69;5095625;28;20047;-66
2024/04/07 02:49:23;;;;;;;1.13;1.02;;;;;;;11.70;83.58;99908.75;5095194;28;20052;-66
2024/04/07 02:51:52;;;;;;;1.45;1.25;;;;;;;11.67;83.81;99918.94;5095478;28;20044;-66
2024/04/07 02:54:20;;;;;;;0.50;0.50;;;;;;;11.68;83.79;99922.38;5095579;28;20048;-66
2024/04/07 02:56:48;;;;;;;0.95;0.93;;;;;;;11.55;83.54;99924.06;5095729;28;20040;-66
2024/04/07 02:59:15;;;;;;;2.55;1.45;;;;;;;11.53;83.54;99920.66;5095385;28;20037;-66
2024/04/07 03:01:42;;;;;;;0.50;0.50;;;;;;;11.53;84.09;99923.22;5095223;28;20048;-66
2024/04/07 03:04:09;;;;;;;1.20;1.05;;;;;;;11.50;84.12;99920.66;5078121;28;20040;-65
2024/04/07 03:06:38;;;;;;;0.50;0.50;;;;;;;11.49;84.43;99916.41;5078166;28;20102;-66
2024/04/07 03:09:06;;;;;;;0.63;0.50;;;;;;;11.54;84.62;99922.34;5094844;28;20044;-66
2024/04/07 03:11:34;;;;;;;0.85;0.65;;;;;;;11.55;84.68;99925.75;5095165;28;20051;-66
2024/04/07 03:14:01;;;;;;;1.95;1.60;;;;;;;11.53;84.88;99925.78;5095030;28;20550;-66
2024/04/07 03:16:29;;;;;;;0.63;0.63;;;;;;;11.56;85.02;99925.78;5078205;28;20478;-66
2024/04/07 03:18:56;;;;;;;0.98;0.88;;;;;;;11.50;84.63;99910.44;5095251;28;20490;-66
2024/04/07 03:21:23;;;;;;;0.70;0.70;;;;;;;11.62;85.27;99940.25;5095008;28;20063;-66
2024/04/07 03:23:50;;;;;;;0.60;0.60;;;;;;;11.64;85.04;99939.41;5094566;28;20036;-66
2024/04/07 03:26:19;;;;;;;0.60;0.60;;;;;;;11.62;84.89;99938.53;5094491;28;20039;-66
2024/04/07 03:28:47;;;;;;;0.45;0.45;;;;;;;11.64;85.03;99929.16;5094811;28;20043;-66
2024/04/07 03:31:15;;;;;;;0.30;0.30;;;;;;;11.66;84.82;99927.47;5095316;28;20040;-66
2024/04/07 03:33:42;;;;;;;0.50;0.50;;;;;;;11.68;84.94;99930.91;5094776;28;20064;-66
2024/04/07 03:36:09;;;;;;;0.70;0.70;;;;;;;11.64;84.75;99943.66;5077704;28;20048;-66
2024/04/07 03:38:38;;;;;;;0.35;0.35;;;;;;;11.61;84.66;99944.53;5094674;28;20052;-66
2024/04/07 03:41:05;;;;;;;0.68;0.68;;;;;;;11.59;84.67;99948.75;5094567;28;20032;-66
2024/04/07 03:43:35;;;;;;;0.50;0.50;;;;;;;11.57;84.69;99949.63;5094470;28;20498;-66
2024/04/07 03:46:03;;;;;;;0.40;0.40;;;;;;;11.51;84.35;99963.28;5094584;28;20085;-66
2024/04/07 03:48:32;;;;;;;0.52;0.52;;;;;;;11.47;84.54;99961.56;5094045;28;20032;-66
2024/04/07 03:50:58;;;;;;;0.73;0.73;;;;;;;11.44;84.82;99961.56;5077586;28;20047;-66
2024/04/07 03:53:28;;;;;;;5.25;1.52;;;;;;;11.45;84.72;99959.00;5094690;28;20272;-66
2024/04/07 03:55:55;;;;;;;4.93;0.88;;;;;;;11.48;84.79;99957.28;5094013;28;20090;-66
2024/04/07 03:58:23;;;;;;;0.30;0.30;;;;;;;11.53;84.66;99961.56;5094243;28;20040;-66
2024/04/07 04:00:51;;;;;;;0.70;0.70;;;;;;;11.53;84.95;99960.72;5093868;28;20051;-66
2024/04/07 04:03:18;;;;;;;0.60;0.60;;;;;;;11.53;84.80;99956.44;5094119;28;20036;-66
2024/04/07 04:05:45;;;;;;;0.73;0.70;;;;;;;11.58;84.35;99959.00;5094042;28;20093;-66
2024/04/07 04:08:13;;;;;;;0.55;0.55;;;;;;;11.59;84.58;99961.56;5077116;28;20059;-66
2024/04/07 04:10:40;;;;;;;1.00;0.95;;;;;;;11.45;84.40;99943.66;5093973;28;20048;-66
2024/04/07 04:13:08;;;;;;;0.30;0.30;;;;;;;11.46;84.21;99964.97;5093588;28;20036;-66
2024/04/07 04:15:35;;;;;;;0.57;0.57;;;;;;;11.45;84.35;99956.44;5093929;28;20410;-66
2024/04/07 04:18:06;;;;;;;0.50;0.50;;;;;;;11.51;84.34;99954.75;5094105;28;20486;-66
2024/04/07 04:20:32;;;;;;;0.40;0.40;;;;;;;11.50;84.17;99955.59;5093398;28;20044;-67
2024/04/07 04:23:00;;;;;;;0.80;0.60;;;;;;;11.48;84.09;99963.25;5093760;28;20036;-66
2024/04/07 04:25:27;;;;;;;1.42;0.95;;;;;;;11.48;83.67;99973.50;5093675;28;20078;-66
2024/04/07 04:27:55;;;;;;;0.47;0.47;;;;;;;11.54;84.02;99962.44;5093652;28;20032;-66
2024/04/07 04:30:22;;;;;;;0.63;0.63;;;;;;;11.54;83.92;99978.59;5076689;28;20093;-66
2024/04/07 04:32:49;;;;;;;0.60;0.60;;;;;;;11.54;83.86;99983.69;5093620;28;20036;-66
2024/04/07 04:35:18;;;;;;;0.40;0.40;;;;;;;11.57;83.94;99973.47;5076592;28;20090;-66
2024/04/07 04:37:46;;;;;;;0.40;0.40;;;;;;;11.64;83.95;99977.75;5093521;28;20044;-66
2024/04/07 04:40:12;;;;;;;4.78;0.82;;;;;;;11.65;83.84;99986.28;5076513;28;20032;-66
2024/04/07 04:42:40;;;;;;;1.00;0.90;;;;;;;11.65;84.20;99979.47;5093655;28;20032;-66
2024/04/07 04:45:07;;;;;;;0.60;0.60;;;;;;;11.71;84.04;99987.16;5093011;28;20134;-66
2024/04/07 04:47:35;;;;;;;0.50;0.50;;;;;;;11.76;84.11;99982.88;5093433;28;20044;-66
2024/04/07 04:50:02;;;;;;;0.40;0.40;;;;;;;11.83;84.08;99991.44;5076390;28;20039;-66
2024/04/07 04:52:31;;;;;;;0.43;0.43;;;;;;;11.87;83.99;99986.31;5076370;28;20044;-66
2024/04/07 04:54:59;;;;;;;0.93;0.75;;;;;;;11.86;83.66;99984.59;5093238;28;20082;-66
2024/04/07 04:57:26;;;;;;;0.40;0.40;;;;;;;11.90;83.74;99991.38;5092460;28;20044;-66
2024/04/07 04:59:53;;;;;;;2.28;0.80;;;;;;;11.93;83.77;99993.94;5093434;28;20486;-66
2024/04/07 05:02:21;;;;;;;2.25;1.17;;;;;;;11.92;83.75;99989.72;5076248;28;20039;-66
2024/04/07 05:04:50;;;;;;;1.25;1.08;;;;;;;11.94;83.75;99988.00;5092742;28;20040;-66
2024/04/07 05:07:18;;;;;;;2.28;1.15;;;;;;;11.97;83.92;99995.66;5092828;28;20036;-66
2024/04/07 05:09:47;;;;;;;0.57;0.57;;;;;;;12.03;83.84;99990.53;5092931;28;20036;-66
2024/04/07 05:12:15;;;;;;;0.77;0.70;;;;;;;12.08;83.91;99999.06;5093227;28;20082;-67
2024/04/07 05:14:41;;;;;;;1.50;1.23;;;;;;;12.15;83.97;99996.47;5092971;28;20044;-66
2024/04/07 05:17:09;;;;;;;0.70;0.68;;;;;;;12.25;83.85;99996.47;5076007;28;20043;-67
2024/04/07 05:19:36;;;;;;;0.63;0.63;;;;;;;12.35;83.97;99993.03;5092360;28;20402;-66
2024/04/07 05:22:04;;;;;;;0.75;0.75;;;;;;;12.38;83.69;99987.03;5093097;28;20044;-66
2024/04/07 05:24:32;;;;;;;0.95;0.60;;;;;;;12.44;83.80;99985.31;5075992;28;20036;-66
2024/04/07 05:27:03;;;;;;;0.70;0.70;;;;;;;12.54;83.74;99989.53;5075802;28;20032;-66
2024/04/07 05:29:30;;;;;;;1.20;0.98;;;;;;;12.62;83.74;99992.09;5092772;28;20476;-66
2024/04/07 05:31:58;;;;;;;0.63;0.63;;;;;;;12.73;83.80;99995.44;5092811;28;20044;-66
2024/04/07 05:34:26;;;;;;;0.45;0.45;;;;;;;12.80;83.71;100002.22;5075724;28;20115;-67
2024/04/07 05:36:54;;;;;;;1.75;0.98;;;;;;;12.92;83.49;100001.31;5092550;28;20044;-66
2024/04/07 05:39:20;;;;;;;0.60;0.60;;;;;;;13.00;83.47;100008.13;5075757;28;20406;-66
2024/04/07 05:41:49;;;;;;;1.42;1.33;;;;;;;13.12;83.49;100007.22;5092631;28;20101;-66
2024/04/07 05:44:17;;;;;;;0.77;0.77;;;;;;;13.22;83.71;100004.59;5092307;28;20051;-66
2024/04/07 05:46:45;;;;;;;0.95;0.88;;;;;;;13.33;83.49;100007.09;5075720;28;20036;-66
2024/04/07 05:49:12;;;;;;;0.70;0.70;;;;;;;13.42;83.35;100002.75;5092425;28;20055;-66
2024/04/07 05:51:39;;;;;;;0.68;0.57;;;;;;;13.53;83.38;100002.69;5092505;28;20394;-66
2024/04/07 05:54:06;;;;;;;0.45;0.43;;;;;;;13.70;83.22;100007.69;5092468;28;20039;-66
2024/04/07 05:56:34;;;;;;;1.50;1.40;;;;;;;13.86;83.39;100012.66;5075647;28;20040;-65
2024/04/07 05:59:02;;;;;;;1.02;0.95;;;;;;;14.04;82.58;100011.63;5092120;28;20402;-66
2024/04/07 06:01:30;;;;;;;0.65;0.65;;;;;;;14.16;82.84;100006.38;5075545;28;20040;-65
2024/04/07 06:03:57;;;;;;;0.98;0.90;;;;;;;14.24;82.40;100020.00;5075443;28;20077;-66
2024/04/07 06:06:24;;;;;;;1.48;0.80;;;;;;;14.31;81.61;100015.69;5092371;28;20047;-66
2024/04/07 06:08:52;;;;;;;0.70;0.70;;;;;;;14.38;81.36;100020.75;5091932;28;20494;-67
2024/04/07 06:11:19;;;;;;;0.63;0.63;;;;;;;14.50;81.31;100028.31;5095903;28;20048;-66
2024/04/07 06:13:47;;;;;;;0.82;0.82;;;;;;;14.61;81.25;100021.31;5079220;28;20036;-66
2024/04/07 06:16:14;;;;;;;0.60;0.60;;;;;;;14.78;80.64;100029.69;5096262;28;20040;-66
2024/04/07 06:18:43;;;;;;;0.77;0.77;;;;;;;14.98;80.76;100020.88;5095602;28;20044;-66
2024/04/07 06:21:10;;;;;;;0.80;0.80;;;;;;;15.07;80.11;100020.78;5095849;28;20059;-66
2024/04/07 06:23:38;;;;;;;3.22;1.52;;;;;;;15.22;80.10;100012.81;5079310;28;20081;-66
2024/04/07 06:26:04;;;;;;;0.98;0.90;;;;;;;15.43;79.02;100008.22;5079603;28;20490;-67
2024/04/07 06:28:32;;;;;;;0.60;0.60;;;;;;;15.60;78.65;100015.72;5095529;28;20040;-66
2024/04/07 06:30:59;;;;;;;0.43;0.43;;;;;;;15.75;77.58;100012.91;5095886;28;20081;-66
2024/04/07 06:33:27;;;;;;;1.63;1.52;;;;;;;15.85;76.77;100016.19;5095909;28;20375;-66
2024/04/07 06:35:57;;;;;;;0.77;0.77;;;;;;;15.98;76.14;100010.78;5095783;28;20101;-66
2024/04/07 06:38:25;;;;;;;0.80;0.77;;;;;;;16.16;75.69;100016.50;5095723;28;20063;-67
2024/04/07 06:40:52;;;;;;;0.85;0.85;;;;;;;16.27;75.10;100017.16;5095743;28;20142;-66
2024/04/07 06:43:20;;;;;;;1.75;1.30;;;;;;;16.35;74.61;100020.44;5078895;28;20036;-67
2024/04/07 06:45:47;;;;;;;1.20;1.10;;;;;;;16.48;74.64;100027.91;5095951;28;20056;-67
2024/04/07 06:48:15;;;;;;;1.05;0.95;;;;;;;16.55;73.52;100024.38;5095158;28;20071;-66
2024/04/07 06:50:41;;;;;;;0.60;0.60;;;;;;;16.54;73.51;100017.50;5095260;28;20044;-67
2024/04/07 06:53:11;;;;;;;0.50;0.50;;;;;;;16.67;73.33;100031.00;5100454;28;20035;-66
2024/04/07 06:55:38;;;;;;;0.90;0.68;;;;;;;16.80;73.13;100037.59;5115680;28;20449;-67
2024/04/07 06:58:05;;;;;;;0.82;0.82;;;;;;;16.94;72.53;100033.00;5098382;28;20501;-67
2024/04/07 07:00:32;;;;;;;0.88;0.70;;;;;;;17.08;72.79;100041.34;5115958;28;20072;-67
2024/04/07 07:02:59;;;;;;;0.77;0.77;;;;;;;17.28;72.29;100039.16;5115766;28;20431;-67
2024/04/07 07:05:27;;;;;;;1.67;1.00;;;;;;;17.41;72.20;100040.59;5115363;28;20054;-67
2024/04/07 07:07:55;;;;;;;0.70;0.70;;;;;;;17.59;71.87;100039.31;5115175;28;20039;-67
2024/04/07 07:10:23;;;;;;;0.60;0.60;;;;;;;17.68;70.95;100038.28;5098598;28;20521;-68
2024/04/07 07:12:51;;;;;;;2.22;1.02;;;;;;;17.68;70.88;100033.97;5098478;28;20040;-67
2024/04/07 07:15:18;;;;;;;0.85;0.77;;;;;;;17.63;70.73;100029.78;5081449;28;20052;-67
2024/04/07 07:17:46;;;;;;;0.90;0.90;;;;;;;17.83;71.10;100040.47;5098327;28;20039;-67
2024/04/07 07:20:13;;;;;;;0.50;0.50;;;;;;;17.98;70.98;100037.53;5097483;28;20043;-67
2024/04/07 07:22:40;;;;;;;2.05;1.20;;;;;;;18.02;70.03;100028.78;5115093;28;20035;-67
2024/04/07 07:25:07;;;;;;;0.57;0.57;;;;;;;18.07;70.08;100030.38;5115031;28;20040;-66
2024/04/07 07:27:37;;;;;;;0.60;0.60;;;;;;;18.07;69.61;100037.28;5115062;28;20039;-66
2024/04/07 07:30:04;;;;;;;0.68;0.55;;;;;;;18.06;69.57;100044.22;5098174;28;20055;-66
2024/04/07 07:32:32;;;;;;;0.50;0.50;;;;;;;18.10;69.60;100037.22;5114987;28;20397;-66
2024/04/07 07:34:59;;;;;;;0.70;0.70;;;;;;;18.15;69.71;100035.38;5114753;28;20039;-66
2024/04/07 07:37:26;;;;;;;0.60;0.60;;;;;;;18.23;69.54;100043.78;5114668;28;20063;-66
2024/04/07 07:39:53;;;;;;;1.10;0.75;;;;;;;18.33;69.28;100039.22;5114877;28;20043;-66
2024/04/07 07:42:21;;;;;;;0.75;0.75;;;;;;;18.42;69.24;100039.81;5114917;28;20046;-66
2024/04/07 07:44:49;;;;;;;1.17;1.08;;;;;;;18.45;68.84;100034.53;5114864;28;20436;-66
2024/04/07 07:47:17;;;;;;;1.40;1.02;;;;;;;18.43;69.15;100040.63;5114707;28;20039;-65
2024/04/07 07:49:44;;;;;;;1.08;0.90;;;;;;;18.65;70.03;100047.81;5114688;28;20047;-66
2024/04/07 07:52:12;;;;;;;0.50;0.50;;;;;;;18.85;70.42;100038.66;5114606;28;20047;-66
2024/04/07 07:54:40;;;;;;;0.98;0.88;;;;;;;18.97;69.92;100043.47;5114160;28;20043;-66
2024/04/07 07:57:08;;;;;;;0.80;0.80;;;;;;;19.04;69.35;100051.00;5114592;28;20039;-66
2024/04/07 07:59:35;;;;;;;0.80;0.80;;;;;;;19.20;69.58;100053.97;5097559;28;20046;-66
2024/04/07 08:02:05;;;;;;;0.55;0.55;;;;;;;19.31;69.49;100075.25;5114514;28;20067;-66
2024/04/07 08:04:31;;;;;;;;;;;;;;;19.53;70.05;100063.34;5097956;28;20059;-66
2024/04/07 08:06:59;;;;;;;0.63;0.63;;;;;;;19.67;69.96;100057.75;5114812;28;19920;-66
2024/04/07 08:09:26;;;;;;;1.95;1.20;;;;;;;19.75;68.48;100058.34;5097011;28;20040;-66
2024/04/07 08:11:53;;;;;;;0.88;0.77;;;;;;;19.74;67.89;100065.28;5114071;28;20047;-66
2024/04/07 08:14:20;;;;;;;0.70;0.70;;;;;;;19.72;67.29;100061.91;5097139;28;20520;-66
2024/04/07 08:16:48;;;;;;;0.77;0.77;;;;;;;19.79;67.12;100060.81;5114013;28;20448;-66
2024/04/07 08:19:17;;;;;;;0.82;0.82;;;;;;;19.82;66.69;100046.91;5113693;28;20082;-66
2024/04/07 08:21:45;;;;;;;2.40;1.42;;;;;;;19.98;66.75;100056.72;5113780;28;20044;-66
2024/04/07 08:24:12;;;;;;;0.57;0.57;;;;;;;20.14;66.31;100058.78;5113842;28;20502;-66
2024/04/07 08:26:41;;;;;;;0.75;0.75;;;;;;;20.24;65.97;100057.59;5097056;28;20101;-66
2024/04/07 08:29:08;;;;;;;1.25;0.55;;;;;;;20.31;65.57;100056.50;5113527;28;20046;-66
2024/04/07 08:31:36;;;;;;;0.60;0.60;;;;;;;20.35;65.01;100058.06;5113485;28;20051;-66
2024/04/07 08:34:03;;;;;;;0.63;0.63;;;;;;;20.48;65.27;100061.97;5113015;28;20082;-66
2024/04/07 08:36:31;;;;;;;0.50;0.50;;;;;;;20.56;64.59;100058.19;5113937;28;20120;-67
2024/04/07 08:38:58;;;;;;;0.68;0.68;;;;;;;20.59;64.35;100044.25;5096983;28;20047;-66
2024/04/07 08:41:26;;;;;;;0.60;0.60;;;;;;;20.76;64.20;100065.25;5113749;28;20051;-66
2024/04/07 08:43:54;;;;;;;1.38;0.98;;;;;;;20.79;63.22;100070.34;5113775;28;20096;-65
2024/04/07 08:46:24;;;;;;;0.63;0.60;;;;;;;20.81;62.62;100062.50;5096765;28;20085;-66
2024/04/07 08:48:54;;;;;;;1.80;0.82;;;;;;;20.88;62.39;100070.00;5096415;28;20074;-66
2024/04/07 08:51:22;;;;;;;0.50;0.50;;;;;;;20.90;62.28;100062.19;5114077;28;20046;-66
2024/04/07 08:53:51;;;;;;;0.68;0.68;;;;;;;20.88;62.72;100070.00;5113345;28;20046;-66
2024/04/07 08:56:20;;;;;;;0.65;0.65;;;;;;;21.00;62.78;100068.69;5113260;28;20486;-66
2024/04/07 08:58:47;;;;;;;1.15;1.05;;;;;;;21.03;62.87;100066.84;5113141;28;20039;-66
2024/04/07 09:01:16;;;;;;;9.95;0.77;;;;;;;20.99;62.42;100062.69;5113468;28;20501;-66
2024/04/07 09:03:43;;;;;;;0.77;0.75;;;;;;;21.13;63.12;100065.66;5113082;28;20035;-66
2024/04/07 09:06:11;;;;;;;0.60;0.60;;;;;;;21.38;63.75;100076.78;5113370;28;20039;-66
2024/04/07 09:08:38;;;;;;;0.63;0.63;;;;;;;21.60;63.41;100070.75;5113021;28;20035;-66
2024/04/07 09:11:10;;;;;;;0.70;0.70;;;;;;;21.75;62.80;100075.34;5113044;28;20040;-66
2024/04/07 09:13:37;;;;;;;0.63;0.63;;;;;;;21.79;61.95;100072.56;5096188;28;20402;-66
2024/04/07 09:16:05;;;;;;;0.50;0.50;;;;;;;21.94;62.68;100060.72;5112888;28;20047;-66
2024/04/07 09:18:32;;;;;;;0.75;0.63;;;;;;;22.09;61.69;100067.06;5112759;28;20040;-66
2024/04/07 09:21:00;;;;;;;1.08;0.98;;;;;;;22.28;61.21;100066.22;5113274;28;20379;-66
2024/04/07 09:23:26;;;;;;;0.50;0.50;;;;;;;22.38;61.02;100061.47;5095740;28;20042;-66
2024/04/07 09:25:54;;;;;;;1.48;1.17;;;;;;;22.44;59.69;100049.03;5095990;28;20524;-66
2024/04/07 09:28:23;;;;;;;0.50;0.50;;;;;;;22.52;59.93;100049.56;5112941;28;20032;-66
2024/04/07 09:30:50;;;;;;;0.63;0.63;;;;;;;22.61;60.24;100037.94;5112723;28;20043;-66
2024/04/07 09:33:19;;;;;;;0.60;0.60;;;;;;;22.79;60.39;100046.69;5113018;28;20082;-66
2024/04/07 09:35:47;;;;;;;0.50;0.50;;;;;;;22.91;59.79;100039.19;5112832;28;20043;-67
2024/04/07 09:38:13;;;;;;;0.82;0.77;;;;;;;22.86;59.58;100009.06;5112939;28;20035;-66
2024/04/07 09:40:46;;;;;;;0.47;0.47;;;;;;;23.16;58.32;100041.47;5095971;28;20039;-67
2024/04/07 09:43:13;;;;;;;0.50;0.50;;;;;;;23.21;57.36;100034.31;5096016;28;20108;-65
2024/04/07 09:45:47;;;;;;;0.82;0.82;;;;;;;23.39;56.89;100027.44;5117236;28;20058;-66
2024/04/07 09:48:17;;;;;;;0.80;0.75;;;;;;;23.43;56.78;100035.03;5116944;28;20075;-67
2024/04/07 09:50:49;;;;;;;0.88;0.80;;;;;;;23.51;56.10;100030.31;5117062;28;20471;-66
2024/04/07 09:53:20;;;;;;;0.47;0.47;;;;;;;23.55;55.40;100028.38;5083098;28;20493;-65
2024/04/07 09:55:51;;;;;;;0.50;0.50;;;;;;;23.64;54.80;100018.34;5116693;28;20043;-66
2024/04/07 09:58:23;;;;;;;9.20;1.83;;;;;;;23.77;55.23;100016.84;5117081;28;20044;-66
2024/04/07 10:00:52;;;;;;;1.08;0.55;;;;;;;24.05;55.06;100013.69;5116929;28;20047;-66
2024/04/07 10:03:19;;;;;;;1.85;0.73;;;;;;;24.18;54.85;100019.16;5099814;28;20052;-65
2024/04/07 10:05:47;;;;;;;0.60;0.60;;;;;;;24.21;53.92;100013.81;5116477;28;20131;-66
2024/04/07 10:08:14;;;;;;;0.50;0.50;;;;;;;24.18;53.65;100019.16;5116577;28;20043;-65
2024/04/07 10:10:43;;;;;;;0.50;0.50;;;;;;;24.20;53.64;100027.75;5116796;28;20495;-66
2024/04/07 10:13:10;;;;;;;0.60;0.60;;;;;;;24.25;53.47;100016.19;5116678;28;20040;-66
2024/04/07 10:15:38;;;;;;;0.40;0.40;;;;;;;24.26;53.45;100012.63;5116658;28;20516;-66
2024/04/07 10:18:16;;;;;;;0.40;0.40;;;;;;;24.29;52.46;100016.84;5116547;28;20047;-66
2024/04/07 10:20:44;;;;;;;0.60;0.60;;;;;;;24.28;52.80;100009.97;5116215;28;20078;-66
2024/04/07 10:23:13;;;;;;;0.60;0.57;;;;;;;24.24;52.96;100003.19;5116166;28;20040;-66
2024/04/07 10:25:47;;;;;;;0.40;0.40;;;;;;;24.30;53.36;100008.09;5116486;28;20035;-66
2024/04/07 10:28:14;;;;;;;1.15;1.05;;;;;;;24.38;53.20;100017.22;5099154;28;20661;-65
2024/04/07 10:30:51;;;;;;;0.65;0.63;;;;;;;24.42;52.18;100017.91;5082345;28;20036;-67
2024/04/07 10:33:22;;;;;;;0.57;0.57;;;;;;;24.54;52.09;100023.34;5116350;28;20051;-67
2024/04/07 10:35:53;;;;;;;0.50;0.50;;;;;;;24.63;51.77;100027.22;5115994;28;20058;-67
2024/04/07 10:38:20;;;;;;;0.40;0.40;;;;;;;24.74;51.53;100024.06;5116567;28;20040;-66
2024/04/07 10:40:47;;;;;;;1.95;0.95;;;;;;;24.68;51.06;100020.00;5115786;28;20554;-68
2024/04/07 10:43:14;;;;;;;0.93;0.85;;;;;;;24.74;50.65;100014.44;5116390;28;20501;-67
2024/04/07 10:45:42;;;;;;;1.00;0.88;;;;;;;24.80;50.96;100008.94;5116058;28;20035;-67
2024/04/07 10:48:09;;;;;;;1.30;0.70;;;;;;;24.84;50.58;100004.38;5115589;28;20550;-67
2024/04/07 10:50:38;;;;;;;0.70;0.70;;;;;;;24.90;50.47;100011.88;5099082;28;20080;-67
2024/04/07 10:53:07;;;;;;;0.47;0.47;;;;;;;24.88;49.93;100016.34;5115711;28;20419;-66
2024/04/07 10:55:37;;;;;;;0.43;0.43;;;;;;;24.73;49.41;99991.88;5114965;28;20043;-66
2024/04/07 10:58:04;;;;;;;0.40;0.40;;;;;;;24.87;49.87;100002.44;5115650;28;20070;-66
2024/04/07 11:00:31;;;;;;;0.50;0.50;;;;;;;24.98;49.94;100013.16;5115786;28;20043;-66
2024/04/07 11:02:58;;;;;;;1.50;0.80;;;;;;;25.09;49.93;100008.19;5115593;28;20151;-67
2024/04/07 11:05:26;;;;;;;0.60;0.60;;;;;;;25.10;49.89;100012.47;5115232;28;20043;-66
2024/04/07 11:07:54;;;;;;;0.65;0.65;;;;;;;25.23;49.90;100007.44;5098503;28;20092;-66
2024/04/07 11:10:22;;;;;;;0.50;0.50;;;;;;;25.25;49.37;100011.63;5115542;28;20558;-66
2024/04/07 11:12:50;;;;;;;1.00;0.57;;;;;;;25.18;49.49;100001.59;5115568;28;20044;-66
2024/04/07 11:15:19;;;;;;;1.00;0.90;;;;;;;25.23;49.99;100002.19;5115435;28;20035;-65
2024/04/07 11:17:46;;;;;;;0.57;0.57;;;;;;;25.35;49.23;100005.91;5115195;28;20604;-66
2024/04/07 11:20:14;;;;;;;0.50;0.50;;;;;;;25.47;49.81;100015.69;5114919;28;20051;-66
2024/04/07 11:22:40;;;;;;;0.40;0.40;;;;;;;25.48;49.35;100002.56;5115297;28;20393;-67
2024/04/07 11:25:09;;;;;;;0.63;0.63;;;;;;;25.46;49.81;100008.81;5115361;28;20040;-66
2024/04/07 11:27:37;;;;;;;;;;;;;;;25.44;49.46;100000.16;5115482;28;20039;-66
2024/04/07 11:30:05;;;;;;;1.05;0.60;;;;;;;25.45;49.41;100009.72;5114825;28;19920;-66
2024/04/07 11:32:36;;;;;;;0.95;0.90;;;;;;;25.39;48.95;99999.59;5115116;28;20514;-67
2024/04/07 11:35:05;;;;;;;0.73;0.65;;;;;;;25.45;49.27;100012.31;5115215;28;20039;-65